Brady, Montana
Current Conditions -  °F | °C
As of 11:53 AM on Friday 21 Nov 2014 (Local Time) from KGTF Reporting Station
Clear Clear  
Wind Chill: 40°   Ceiling: Unl
Heat Index: 48°   Visibility: 10mi
Dew Point: 29°   Wind: 24mph
Humidity: 48%   Direction: 220°SW
Pressure: 29.75"   Gusts: 32mph
Location:  48.03°N, 111.85°W
Report Text: KGTF 211853Z 22021G28KT 10SM CLR 09/M02 A2975 RMK AO2 PK WND 22028/1845 SLP092 T00891017
Loading
Personal Weather Stations






























Interactive Weather Map New forecast layout! Learn more

10-Day Weather Forecast

Advertisements
Track Severe Weather on mobile